sensor_id;sensor_type;location;lat;lon;timestamp;P1;durP1;ratioP1;P2;durP2;ratioP2
9934;SDS011;5006;41.828;23.478;2024-02-14T00:00:38;0.77;;;0.70;;
9934;SDS011;5006;41.828;23.478;2024-02-14T00:01:45;0.90;;;0.70;;
9934;SDS011;5006;41.828;23.478;2024-02-14T00:02:50;0.73;;;0.73;;
9934;SDS011;5006;41.828;23.478;2024-02-14T00:03:57;0.80;;;0.80;;
9934;SDS011;5006;41.828;23.478;2024-02-14T00:05:02;0.60;;;0.60;;
9934;SDS011;5006;41.828;23.478;2024-02-14T00:06:10;0.80;;;0.80;;
9934;SDS011;5006;41.828;23.478;2024-02-14T00:07:16;1.10;;;0.70;;
9934;SDS011;5006;41.828;23.478;2024-02-14T00:08:25;0.95;;;0.75;;
9934;SDS011;5006;41.828;23.478;2024-02-14T00:09:30;0.80;;;0.80;;
9934;SDS011;5006;41.828;23.478;2024-02-14T00:10:37;0.80;;;0.80;;
9934;SDS011;5006;41.828;23.478;2024-02-14T00:11:42;0.70;;;0.70;;
9934;SDS011;5006;41.828;23.478;2024-02-14T00:12:49;0.80;;;0.80;;
9934;SDS011;5006;41.828;23.478;2024-02-14T00:13:55;0.90;;;0.90;;
9934;SDS011;5006;41.828;23.478;2024-02-14T00:15:02;0.85;;;0.85;;
9934;SDS011;5006;41.828;23.478;2024-02-14T00:16:09;0.98;;;0.98;;
9934;SDS011;5006;41.828;23.478;2024-02-14T00:17:16;1.02;;;0.90;;
9934;SDS011;5006;41.828;23.478;2024-02-14T00:18:21;1.08;;;0.98;;
9934;SDS011;5006;41.828;23.478;2024-02-14T00:19:29;1.25;;;0.90;;
9934;SDS011;5006;41.828;23.478;2024-02-14T00:20:35;0.70;;;0.70;;
9934;SDS011;5006;41.828;23.478;2024-02-14T00:21:42;0.90;;;0.90;;
9934;SDS011;5006;41.828;23.478;2024-02-14T00:22:47;1.10;;;1.00;;
9934;SDS011;5006;41.828;23.478;2024-02-14T00:23:54;1.27;;;1.17;;
9934;SDS011;5006;41.828;23.478;2024-02-14T00:25:00;1.20;;;1.10;;
9934;SDS011;5006;41.828;23.478;2024-02-14T00:26:09;1.20;;;1.10;;
9934;SDS011;5006;41.828;23.478;2024-02-14T00:27:14;1.20;;;1.10;;
9934;SDS011;5006;41.828;23.478;2024-02-14T00:28:21;1.20;;;1.10;;
9934;SDS011;5006;41.828;23.478;2024-02-14T00:29:28;1.15;;;1.05;;
9934;SDS011;5006;41.828;23.478;2024-02-14T00:30:34;1.55;;;1.27;;
9934;SDS011;5006;41.828;23.478;2024-02-14T00:31:49;1.50;;;1.40;;
9934;SDS011;5006;41.828;23.478;2024-02-14T00:32:59;1.27;;;1.17;;
9934;SDS011;5006;41.828;23.478;2024-02-14T00:34:05;1.85;;;1.38;;
9934;SDS011;5006;41.828;23.478;2024-02-14T00:35:12;1.77;;;1.50;;
9934;SDS011;5006;41.828;23.478;2024-02-14T00:36:18;1.60;;;1.50;;
9934;SDS011;5006;41.828;23.478;2024-02-14T00:37:25;1.48;;;1.38;;
9934;SDS011;5006;41.828;23.478;2024-02-14T00:38:30;1.65;;;1.55;;
9934;SDS011;5006;41.828;23.478;2024-02-14T00:39:38;1.70;;;1.60;;
9934;SDS011;5006;41.828;23.478;2024-02-14T00:40:44;1.70;;;1.60;;
9934;SDS011;5006;41.828;23.478;2024-02-14T00:41:49;1.50;;;1.40;;
9934;SDS011;5006;41.828;23.478;2024-02-14T00:42:57;2.05;;;1.88;;
9934;SDS011;5006;41.828;23.478;2024-02-14T00:44:02;1.55;;;1.45;;
9934;SDS011;5006;41.828;23.478;2024-02-14T00:45:09;1.73;;;1.48;;
9934;SDS011;5006;41.828;23.478;2024-02-14T00:46:15;1.70;;;1.60;;
9934;SDS011;5006;41.828;23.478;2024-02-14T00:47:22;1.60;;;1.50;;
9934;SDS011;5006;41.828;23.478;2024-02-14T00:48:27;1.60;;;1.50;;
9934;SDS011;5006;41.828;23.478;2024-02-14T00:49:34;2.00;;;1.90;;
9934;SDS011;5006;41.828;23.478;2024-02-14T00:50:40;1.35;;;1.20;;
9934;SDS011;5006;41.828;23.478;2024-02-14T00:51:47;1.55;;;1.45;;
9934;SDS011;5006;41.828;23.478;2024-02-14T00:52:53;2.42;;;1.63;;
9934;SDS011;5006;41.828;23.478;2024-02-14T00:53:59;1.75;;;1.40;;
9934;SDS011;5006;41.828;23.478;2024-02-14T00:55:07;1.58;;;1.42;;
9934;SDS011;5006;41.828;23.478;2024-02-14T00:56:13;2.10;;;1.90;;
9934;SDS011;5006;41.828;23.478;2024-02-14T00:57:19;1.60;;;1.50;;
9934;SDS011;5006;41.828;23.478;2024-02-14T00:58:30;1.50;;;1.40;;
9934;SDS011;5006;41.828;23.478;2024-02-14T00:59:37;1.48;;;1.38;;
9934;SDS011;5006;41.828;23.478;2024-02-14T01:00:43;1.60;;;1.50;;
9934;SDS011;5006;41.828;23.478;2024-02-14T01:01:49;1.85;;;1.55;;
9934;SDS011;5006;41.828;23.478;2024-02-14T01:02:56;1.58;;;1.48;;
9934;SDS011;5006;41.828;23.478;2024-02-14T01:04:03;1.90;;;1.70;;
9934;SDS011;5006;41.828;23.478;2024-02-14T01:05:09;1.55;;;1.45;;
9934;SDS011;5006;41.828;23.478;2024-02-14T01:06:14;1.33;;;1.23;;
9934;SDS011;5006;41.828;23.478;2024-02-14T01:07:20;1.50;;;1.40;;
9934;SDS011;5006;41.828;23.478;2024-02-14T01:08:25;1.60;;;1.50;;
9934;SDS011;5006;41.828;23.478;2024-02-14T01:09:31;2.00;;;1.80;;
9934;SDS011;5006;41.828;23.478;2024-02-14T01:10:38;1.80;;;1.70;;
9934;SDS011;5006;41.828;23.478;2024-02-14T01:11:44;1.48;;;1.38;;
9934;SDS011;5006;41.828;23.478;2024-02-14T01:12:51;1.50;;;1.40;;
9934;SDS011;5006;41.828;23.478;2024-02-14T01:13:56;1.52;;;1.40;;
9934;SDS011;5006;41.828;23.478;2024-02-14T01:15:03;1.50;;;1.40;;
9934;SDS011;5006;41.828;23.478;2024-02-14T01:16:12;1.45;;;1.35;;
9934;SDS011;5006;41.828;23.478;2024-02-14T01:17:18;1.80;;;1.70;;
9934;SDS011;5006;41.828;23.478;2024-02-14T01:18:23;1.60;;;1.50;;
9934;SDS011;5006;41.828;23.478;2024-02-14T01:19:30;1.70;;;1.60;;
9934;SDS011;5006;41.828;23.478;2024-02-14T01:20:36;1.77;;;1.67;;
9934;SDS011;5006;41.828;23.478;2024-02-14T01:21:43;1.63;;;1.52;;
9934;SDS011;5006;41.828;23.478;2024-02-14T01:22:53;1.40;;;1.30;;
9934;SDS011;5006;41.828;23.478;2024-02-14T01:24:02;1.48;;;1.38;;
9934;SDS011;5006;41.828;23.478;2024-02-14T01:25:09;1.80;;;1.30;;
9934;SDS011;5006;41.828;23.478;2024-02-14T01:26:17;1.40;;;1.30;;
9934;SDS011;5006;41.828;23.478;2024-02-14T01:27:22;1.23;;;1.13;;
9934;SDS011;5006;41.828;23.478;2024-02-14T01:28:28;1.30;;;1.20;;
9934;SDS011;5006;41.828;23.478;2024-02-14T01:29:33;1.33;;;1.20;;
9934;SDS011;5006;41.828;23.478;2024-02-14T01:30:39;1.30;;;1.20;;
9934;SDS011;5006;41.828;23.478;2024-02-14T01:31:45;1.30;;;1.20;;
9934;SDS011;5006;41.828;23.478;2024-02-14T01:32:52;1.80;;;1.40;;
9934;SDS011;5006;41.828;23.478;2024-02-14T01:33:59;1.73;;;1.30;;
9934;SDS011;5006;41.828;23.478;2024-02-14T01:35:06;1.20;;;1.10;;
9934;SDS011;5006;41.828;23.478;2024-02-14T01:36:15;1.27;;;1.17;;
9934;SDS011;5006;41.828;23.478;2024-02-14T01:37:21;1.60;;;1.50;;
9934;SDS011;5006;41.828;23.478;2024-02-14T01:38:26;1.48;;;1.38;;
9934;SDS011;5006;41.828;23.478;2024-02-14T01:39:31;1.50;;;1.40;;
9934;SDS011;5006;41.828;23.478;2024-02-14T01:40:37;1.33;;;1.10;;
9934;SDS011;5006;41.828;23.478;2024-02-14T01:41:47;1.23;;;1.13;;
9934;SDS011;5006;41.828;23.478;2024-02-14T01:42:54;1.40;;;1.30;;
9934;SDS011;5006;41.828;23.478;2024-02-14T01:44:01;1.55;;;1.40;;
9934;SDS011;5006;41.828;23.478;2024-02-14T01:45:08;1.40;;;1.30;;
9934;SDS011;5006;41.828;23.478;2024-02-14T01:46:23;1.70;;;1.60;;
9934;SDS011;5006;41.828;23.478;2024-02-14T01:47:34;1.60;;;1.50;;
9934;SDS011;5006;41.828;23.478;2024-02-14T01:48:40;1.70;;;1.50;;
9934;SDS011;5006;41.828;23.478;2024-02-14T01:49:47;1.55;;;1.45;;
9934;SDS011;5006;41.828;23.478;2024-02-14T01:50:53;1.85;;;1.67;;
9934;SDS011;5006;41.828;23.478;2024-02-14T01:52:01;1.63;;;1.52;;
9934;SDS011;5006;41.828;23.478;2024-02-14T01:53:08;1.35;;;1.25;;
9934;SDS011;5006;41.828;23.478;2024-02-14T01:54:15;1.50;;;1.40;;
9934;SDS011;5006;41.828;23.478;2024-02-14T01:56:49;1.40;;;1.30;;
9934;SDS011;5006;41.828;23.478;2024-02-14T01:57:54;1.50;;;1.40;;
9934;SDS011;5006;41.828;23.478;2024-02-14T01:59:01;1.58;;;1.48;;
9934;SDS011;5006;41.828;23.478;2024-02-14T02:00:08;1.50;;;1.40;;
9934;SDS011;5006;41.828;23.478;2024-02-14T02:01:23;1.40;;;1.30;;
9934;SDS011;5006;41.828;23.478;2024-02-14T02:02:28;2.00;;;1.65;;
9934;SDS011;5006;41.828;23.478;2024-02-14T02:03:34;1.70;;;1.60;;
9934;SDS011;5006;41.828;23.478;2024-02-14T02:04:41;1.38;;;1.27;;
9934;SDS011;5006;41.828;23.478;2024-02-14T02:05:47;1.77;;;1.50;;
9934;SDS011;5006;41.828;23.478;2024-02-14T02:06:53;1.40;;;1.30;;
9934;SDS011;5006;41.828;23.478;2024-02-14T02:08:02;1.38;;;1.27;;
9934;SDS011;5006;41.828;23.478;2024-02-14T02:09:07;1.23;;;1.13;;
9934;SDS011;5006;41.828;23.478;2024-02-14T02:10:13;1.30;;;1.20;;
9934;SDS011;5006;41.828;23.478;2024-02-14T02:11:25;1.55;;;1.33;;
9934;SDS011;5006;41.828;23.478;2024-02-14T02:12:58;2.13;;;1.30;;
9934;SDS011;5006;41.828;23.478;2024-02-14T02:14:24;2.30;;;1.40;;
9934;SDS011;5006;41.828;23.478;2024-02-14T02:15:50;1.23;;;1.13;;
9934;SDS011;5006;41.828;23.478;2024-02-14T02:17:16;1.10;;;1.00;;
9934;SDS011;5006;41.828;23.478;2024-02-14T02:18:43;1.27;;;1.17;;
9934;SDS011;5006;41.828;23.478;2024-02-14T02:20:09;1.38;;;1.20;;
9934;SDS011;5006;41.828;23.478;2024-02-14T02:21:16;1.13;;;1.02;;
9934;SDS011;5006;41.828;23.478;2024-02-14T02:22:28;1.30;;;1.20;;
9934;SDS011;5006;41.828;23.478;2024-02-14T02:23:54;1.48;;;1.20;;
9934;SDS011;5006;41.828;23.478;2024-02-14T02:25:01;2.08;;;1.45;;
9934;SDS011;5006;41.828;23.478;2024-02-14T02:26:14;1.83;;;1.20;;
9934;SDS011;5006;41.828;23.478;2024-02-14T02:27:39;1.40;;;1.30;;
9934;SDS011;5006;41.828;23.478;2024-02-14T02:29:04;1.20;;;1.10;;
9934;SDS011;5006;41.828;23.478;2024-02-14T02:30:10;1.50;;;1.40;;
9934;SDS011;5006;41.828;23.478;2024-02-14T02:31:19;1.30;;;1.20;;
9934;SDS011;5006;41.828;23.478;2024-02-14T02:32:24;1.33;;;1.23;;
9934;SDS011;5006;41.828;23.478;2024-02-14T02:33:30;1.25;;;1.10;;
9934;SDS011;5006;41.828;23.478;2024-02-14T02:34:35;1.30;;;1.20;;
9934;SDS011;5006;41.828;23.478;2024-02-14T02:35:43;1.25;;;1.15;;
9934;SDS011;5006;41.828;23.478;2024-02-14T02:37:09;1.75;;;1.65;;
9934;SDS011;5006;41.828;23.478;2024-02-14T02:38:42;1.75;;;1.50;;
9934;SDS011;5006;41.828;23.478;2024-02-14T02:40:12;1.60;;;1.50;;
9934;SDS011;5006;41.828;23.478;2024-02-14T02:41:39;1.60;;;1.50;;
9934;SDS011;5006;41.828;23.478;2024-02-14T02:43:03;1.60;;;1.50;;
9934;SDS011;5006;41.828;23.478;2024-02-14T02:44:31;1.40;;;1.30;;
9934;SDS011;5006;41.828;23.478;2024-02-14T02:45:55;1.67;;;1.58;;
9934;SDS011;5006;41.828;23.478;2024-02-14T02:47:36;2.50;;;1.60;;
9934;SDS011;5006;41.828;23.478;2024-02-14T02:49:02;1.58;;;1.23;;
9934;SDS011;5006;41.828;23.478;2024-02-14T02:50:09;1.23;;;1.13;;
9934;SDS011;5006;41.828;23.478;2024-02-14T02:51:35;1.60;;;1.50;;
9934;SDS011;5006;41.828;23.478;2024-02-14T02:53:02;1.40;;;1.30;;
9934;SDS011;5006;41.828;23.478;2024-02-14T02:54:28;1.30;;;1.20;;
9934;SDS011;5006;41.828;23.478;2024-02-14T02:55:57;1.10;;;1.00;;
9934;SDS011;5006;41.828;23.478;2024-02-14T02:57:04;2.05;;;1.85;;
9934;SDS011;5006;41.828;23.478;2024-02-14T02:58:11;1.80;;;1.70;;
9934;SDS011;5006;41.828;23.478;2024-02-14T02:59:18;3.08;;;1.80;;
9934;SDS011;5006;41.828;23.478;2024-02-14T03:00:26;1.98;;;1.80;;
9934;SDS011;5006;41.828;23.478;2024-02-14T03:01:45;1.85;;;1.73;;
9934;SDS011;5006;41.828;23.478;2024-02-14T03:03:13;1.85;;;1.65;;
9934;SDS011;5006;41.828;23.478;2024-02-14T03:04:39;1.50;;;1.40;;
9934;SDS011;5006;41.828;23.478;2024-02-14T03:06:06;1.48;;;1.38;;
9934;SDS011;5006;41.828;23.478;2024-02-14T03:07:33;1.73;;;1.58;;
9934;SDS011;5006;41.828;23.478;2024-02-14T03:08:59;1.83;;;1.40;;
9934;SDS011;5006;41.828;23.478;2024-02-14T03:10:24;1.75;;;1.40;;
9934;SDS011;5006;41.828;23.478;2024-02-14T03:11:53;1.42;;;1.20;;
9934;SDS011;5006;41.828;23.478;2024-02-14T03:13:19;1.42;;;1.33;;
9934;SDS011;5006;41.828;23.478;2024-02-14T03:14:46;1.60;;;1.50;;
9934;SDS011;5006;41.828;23.478;2024-02-14T03:16:11;2.35;;;2.10;;
9934;SDS011;5006;41.828;23.478;2024-02-14T03:17:19;2.40;;;2.20;;
9934;SDS011;5006;41.828;23.478;2024-02-14T03:18:25;1.90;;;1.73;;
9934;SDS011;5006;41.828;23.478;2024-02-14T03:19:31;2.88;;;2.28;;
9934;SDS011;5006;41.828;23.478;2024-02-14T03:20:42;3.38;;;3.08;;
9934;SDS011;5006;41.828;23.478;2024-02-14T03:21:49;2.40;;;2.20;;
9934;SDS011;5006;41.828;23.478;2024-02-14T03:22:55;2.50;;;2.30;;
9934;SDS011;5006;41.828;23.478;2024-02-14T03:24:02;2.30;;;2.10;;
9934;SDS011;5006;41.828;23.478;2024-02-14T03:25:12;2.22;;;2.03;;
9934;SDS011;5006;41.828;23.478;2024-02-14T03:26:31;3.35;;;2.20;;
9934;SDS011;5006;41.828;23.478;2024-02-14T03:27:38;2.72;;;2.30;;
9934;SDS011;5006;41.828;23.478;2024-02-14T03:28:45;2.40;;;2.20;;
9934;SDS011;5006;41.828;23.478;2024-02-14T03:29:50;2.25;;;2.10;;
9934;SDS011;5006;41.828;23.478;2024-02-14T03:30:56;2.60;;;2.40;;
9934;SDS011;5006;41.828;23.478;2024-02-14T03:32:01;2.67;;;2.47;;
9934;SDS011;5006;41.828;23.478;2024-02-14T03:33:09;2.85;;;2.65;;
9934;SDS011;5006;41.828;23.478;2024-02-14T03:34:14;2.70;;;2.40;;
9934;SDS011;5006;41.828;23.478;2024-02-14T03:35:20;2.83;;;2.63;;
9934;SDS011;5006;41.828;23.478;2024-02-14T03:36:26;2.83;;;2.63;;
9934;SDS011;5006;41.828;23.478;2024-02-14T03:37:37;3.00;;;2.72;;
9934;SDS011;5006;41.828;23.478;2024-02-14T03:38:44;3.80;;;3.40;;
9934;SDS011;5006;41.828;23.478;2024-02-14T03:39:51;3.30;;;3.00;;
9934;SDS011;5006;41.828;23.478;2024-02-14T03:40:57;6.55;;;4.55;;
9934;SDS011;5006;41.828;23.478;2024-02-14T03:42:04;6.50;;;4.60;;
9934;SDS011;5006;41.828;23.478;2024-02-14T03:43:13;3.33;;;3.00;;
9934;SDS011;5006;41.828;23.478;2024-02-14T03:44:19;3.55;;;3.17;;
9934;SDS011;5006;41.828;23.478;2024-02-14T03:45:25;3.72;;;3.42;;
9934;SDS011;5006;41.828;23.478;2024-02-14T03:46:34;3.60;;;3.30;;
9934;SDS011;5006;41.828;23.478;2024-02-14T03:47:39;3.53;;;3.22;;
9934;SDS011;5006;41.828;23.478;2024-02-14T03:48:46;3.47;;;3.17;;
9934;SDS011;5006;41.828;23.478;2024-02-14T03:49:53;3.50;;;3.20;;
9934;SDS011;5006;41.828;23.478;2024-02-14T03:50:59;3.35;;;3.05;;
9934;SDS011;5006;41.828;23.478;2024-02-14T03:52:06;3.42;;;3.13;;
9934;SDS011;5006;41.828;23.478;2024-02-14T03:53:14;3.40;;;3.10;;
9934;SDS011;5006;41.828;23.478;2024-02-14T03:54:21;3.30;;;3.00;;
9934;SDS011;5006;41.828;23.478;2024-02-14T03:55:27;3.00;;;2.80;;
9934;SDS011;5006;41.828;23.478;2024-02-14T03:56:34;3.20;;;2.97;;
9934;SDS011;5006;41.828;23.478;2024-02-14T03:57:41;3.33;;;3.03;;
9934;SDS011;5006;41.828;23.478;2024-02-14T03:58:50;3.28;;;3.08;;
9934;SDS011;5006;41.828;23.478;2024-02-14T03:59:59;3.17;;;2.88;;
9934;SDS011;5006;41.828;23.478;2024-02-14T04:01:16;3.83;;;3.15;;
9934;SDS011;5006;41.828;23.478;2024-02-14T04:02:24;4.05;;;3.65;;
9934;SDS011;5006;41.828;23.478;2024-02-14T04:03:33;3.83;;;3.47;;
9934;SDS011;5006;41.828;23.478;2024-02-14T04:04:41;3.38;;;3.08;;
9934;SDS011;5006;41.828;23.478;2024-02-14T04:05:46;3.30;;;3.00;;
9934;SDS011;5006;41.828;23.478;2024-02-14T04:06:53;4.00;;;3.55;;
9934;SDS011;5006;41.828;23.478;2024-02-14T04:07:58;3.53;;;3.22;;
9934;SDS011;5006;41.828;23.478;2024-02-14T04:09:04;3.40;;;3.10;;
9934;SDS011;5006;41.828;23.478;2024-02-14T04:10:09;3.28;;;3.00;;
9934;SDS011;5006;41.828;23.478;2024-02-14T04:11:15;3.50;;;3.20;;
9934;SDS011;5006;41.828;23.478;2024-02-14T04:12:20;5.78;;;4.40;;
9934;SDS011;5006;41.828;23.478;2024-02-14T04:13:27;5.65;;;4.50;;
9934;SDS011;5006;41.828;23.478;2024-02-14T04:14:34;5.43;;;3.83;;
9934;SDS011;5006;41.828;23.478;2024-02-14T04:15:40;4.13;;;3.70;;
9934;SDS011;5006;41.828;23.478;2024-02-14T04:16:50;3.70;;;3.00;;
9934;SDS011;5006;41.828;23.478;2024-02-14T04:17:57;4.20;;;3.20;;
9934;SDS011;5006;41.828;23.478;2024-02-14T04:19:04;3.50;;;3.20;;
9934;SDS011;5006;41.828;23.478;2024-02-14T04:20:12;3.90;;;3.50;;
9934;SDS011;5006;41.828;23.478;2024-02-14T04:21:17;3.78;;;3.17;;
9934;SDS011;5006;41.828;23.478;2024-02-14T04:22:23;3.60;;;3.30;;
9934;SDS011;5006;41.828;23.478;2024-02-14T04:23:28;3.95;;;3.65;;
9934;SDS011;5006;41.828;23.478;2024-02-14T04:24:34;3.88;;;3.47;;
9934;SDS011;5006;41.828;23.478;2024-02-14T04:25:39;3.45;;;3.15;;
9934;SDS011;5006;41.828;23.478;2024-02-14T04:26:46;4.15;;;3.75;;
9934;SDS011;5006;41.828;23.478;2024-02-14T04:27:53;3.47;;;3.17;;
9934;SDS011;5006;41.828;23.478;2024-02-14T04:28:59;3.40;;;3.10;;
9934;SDS011;5006;41.828;23.478;2024-02-14T04:30:07;3.75;;;3.35;;
9934;SDS011;5006;41.828;23.478;2024-02-14T04:31:32;3.42;;;3.13;;
9934;SDS011;5006;41.828;23.478;2024-02-14T04:32:43;3.50;;;3.20;;
9934;SDS011;5006;41.828;23.478;2024-02-14T04:33:48;3.35;;;3.05;;
9934;SDS011;5006;41.828;23.478;2024-02-14T04:34:56;3.78;;;3.47;;
9934;SDS011;5006;41.828;23.478;2024-02-14T04:36:02;3.40;;;3.10;;
9934;SDS011;5006;41.828;23.478;2024-02-14T04:37:10;3.10;;;2.80;;
9934;SDS011;5006;41.828;23.478;2024-02-14T04:38:18;4.50;;;3.50;;
9934;SDS011;5006;41.828;23.478;2024-02-14T04:39:24;3.30;;;3.00;;
9934;SDS011;5006;41.828;23.478;2024-02-14T04:40:30;3.47;;;2.90;;
9934;SDS011;5006;41.828;23.478;2024-02-14T04:41:36;3.50;;;3.20;;
9934;SDS011;5006;41.828;23.478;2024-02-14T04:42:43;3.40;;;3.10;;
9934;SDS011;5006;41.828;23.478;2024-02-14T04:43:48;4.85;;;3.58;;
9934;SDS011;5006;41.828;23.478;2024-02-14T04:44:54;3.60;;;3.30;;
9934;SDS011;5006;41.828;23.478;2024-02-14T04:46:01;3.70;;;3.40;;
9934;SDS011;5006;41.828;23.478;2024-02-14T04:47:11;3.80;;;3.50;;
9934;SDS011;5006;41.828;23.478;2024-02-14T04:48:17;3.65;;;3.35;;
9934;SDS011;5006;41.828;23.478;2024-02-14T04:49:23;3.50;;;3.20;;
9934;SDS011;5006;41.828;23.478;2024-02-14T04:50:29;3.50;;;3.20;;
9934;SDS011;5006;41.828;23.478;2024-02-14T04:51:35;4.15;;;3.72;;
9934;SDS011;5006;41.828;23.478;2024-02-14T04:52:42;4.50;;;3.70;;
9934;SDS011;5006;41.828;23.478;2024-02-14T04:53:48;3.80;;;3.50;;
9934;SDS011;5006;41.828;23.478;2024-02-14T04:54:53;4.00;;;3.70;;
9934;SDS011;5006;41.828;23.478;2024-02-14T04:56:00;3.95;;;3.60;;
9934;SDS011;5006;41.828;23.478;2024-02-14T04:57:07;3.78;;;3.47;;
9934;SDS011;5006;41.828;23.478;2024-02-14T04:58:12;4.15;;;3.80;;
9934;SDS011;5006;41.828;23.478;2024-02-14T04:59:18;4.38;;;3.97;;
9934;SDS011;5006;41.828;23.478;2024-02-14T05:00:23;4.30;;;3.90;;
9934;SDS011;5006;41.828;23.478;2024-02-14T05:01:32;4.50;;;4.10;;
9934;SDS011;5006;41.828;23.478;2024-02-14T05:02:39;4.70;;;4.30;;
9934;SDS011;5006;41.828;23.478;2024-02-14T05:03:45;4.88;;;4.45;;
9934;SDS011;5006;41.828;23.478;2024-02-14T05:04:50;4.60;;;4.20;;
9934;SDS011;5006;41.828;23.478;2024-02-14T05:05:57;5.30;;;4.40;;
9934;SDS011;5006;41.828;23.478;2024-02-14T05:07:04;4.65;;;4.25;;
9934;SDS011;5006;41.828;23.478;2024-02-14T05:08:12;4.70;;;4.30;;
9934;SDS011;5006;41.828;23.478;2024-02-14T05:09:17;4.90;;;4.50;;
9934;SDS011;5006;41.828;23.478;2024-02-14T05:10:24;4.65;;;4.25;;
9934;SDS011;5006;41.828;23.478;2024-02-14T05:11:30;4.65;;;4.22;;
9934;SDS011;5006;41.828;23.478;2024-02-14T05:12:37;4.65;;;4.25;;
9934;SDS011;5006;41.828;23.478;2024-02-14T05:13:44;4.88;;;4.47;;
9934;SDS011;5006;41.828;23.478;2024-02-14T05:14:51;4.65;;;4.25;;
9934;SDS011;5006;41.828;23.478;2024-02-14T05:15:56;4.72;;;4.18;;
9934;SDS011;5006;41.828;23.478;2024-02-14T05:17:05;4.65;;;4.25;;
9934;SDS011;5006;41.828;23.478;2024-02-14T05:18:11;4.45;;;4.13;;
9934;SDS011;5006;41.828;23.478;2024-02-14T05:19:17;4.80;;;4.40;;
9934;SDS011;5006;41.828;23.478;2024-02-14T05:20:24;5.22;;;4.47;;
9934;SDS011;5006;41.828;23.478;2024-02-14T05:21:30;4.78;;;4.35;;
9934;SDS011;5006;41.828;23.478;2024-02-14T05:22:36;4.43;;;4.03;;
9934;SDS011;5006;41.828;23.478;2024-02-14T05:23:43;4.68;;;4.28;;
9934;SDS011;5006;41.828;23.478;2024-02-14T05:24:48;5.55;;;4.18;;
9934;SDS011;5006;41.828;23.478;2024-02-14T05:25:55;4.22;;;3.83;;
9934;SDS011;5006;41.828;23.478;2024-02-14T05:27:01;4.68;;;4.28;;
9934;SDS011;5006;41.828;23.478;2024-02-14T05:28:08;4.18;;;3.80;;
9934;SDS011;5006;41.828;23.478;2024-02-14T05:29:17;4.80;;;4.32;;
9934;SDS011;5006;41.828;23.478;2024-02-14T05:30:26;4.45;;;4.05;;
9934;SDS011;5006;41.828;23.478;2024-02-14T05:31:43;5.63;;;4.28;;
9934;SDS011;5006;41.828;23.478;2024-02-14T05:32:52;4.53;;;4.05;;
9934;SDS011;5006;41.828;23.478;2024-02-14T05:33:57;5.03;;;4.53;;
9934;SDS011;5006;41.828;23.478;2024-02-14T05:35:05;7.03;;;4.38;;
9934;SDS011;5006;41.828;23.478;2024-02-14T05:36:12;4.28;;;3.92;;
9934;SDS011;5006;41.828;23.478;2024-02-14T05:37:18;5.18;;;4.70;;
9934;SDS011;5006;41.828;23.478;2024-02-14T05:38:24;4.90;;;4.40;;
9934;SDS011;5006;41.828;23.478;2024-02-14T05:39:31;5.20;;;4.70;;
9934;SDS011;5006;41.828;23.478;2024-02-14T05:40:37;5.57;;;4.78;;
9934;SDS011;5006;41.828;23.478;2024-02-14T05:41:44;5.15;;;4.65;;
9934;SDS011;5006;41.828;23.478;2024-02-14T05:42:50;5.10;;;4.70;;
9934;SDS011;5006;41.828;23.478;2024-02-14T05:43:58;5.72;;;4.95;;
9934;SDS011;5006;41.828;23.478;2024-02-14T05:45:04;4.70;;;4.30;;
9934;SDS011;5006;41.828;23.478;2024-02-14T05:46:11;5.40;;;4.80;;
9934;SDS011;5006;41.828;23.478;2024-02-14T05:47:16;5.65;;;5.18;;
9934;SDS011;5006;41.828;23.478;2024-02-14T05:48:25;5.43;;;4.93;;
9934;SDS011;5006;41.828;23.478;2024-02-14T05:49:30;5.90;;;5.30;;
9934;SDS011;5006;41.828;23.478;2024-02-14T05:50:37;6.40;;;5.22;;
9934;SDS011;5006;41.828;23.478;2024-02-14T05:51:43;7.93;;;7.13;;
9934;SDS011;5006;41.828;23.478;2024-02-14T05:52:50;6.53;;;5.82;;
9934;SDS011;5006;41.828;23.478;2024-02-14T05:53:56;7.85;;;6.68;;
9934;SDS011;5006;41.828;23.478;2024-02-14T05:55:03;8.75;;;7.10;;
9934;SDS011;5006;41.828;23.478;2024-02-14T05:56:12;7.47;;;5.72;;
9934;SDS011;5006;41.828;23.478;2024-02-14T05:57:18;7.18;;;6.22;;
9934;SDS011;5006;41.828;23.478;2024-02-14T05:58:24;7.32;;;5.10;;
9934;SDS011;5006;41.828;23.478;2024-02-14T05:59:33;6.40;;;5.80;;
9934;SDS011;5006;41.828;23.478;2024-02-14T06:00:38;7.85;;;5.90;;
9934;SDS011;5006;41.828;23.478;2024-02-14T06:01:44;8.00;;;6.40;;
9934;SDS011;5006;41.828;23.478;2024-02-14T06:02:49;6.20;;;5.60;;
9934;SDS011;5006;41.828;23.478;2024-02-14T06:03:57;6.40;;;5.57;;
9934;SDS011;5006;41.828;23.478;2024-02-14T06:05:02;6.55;;;5.65;;
9934;SDS011;5006;41.828;23.478;2024-02-14T06:06:11;5.00;;;4.60;;
9934;SDS011;5006;41.828;23.478;2024-02-14T06:07:16;5.00;;;4.50;;
9934;SDS011;5006;41.828;23.478;2024-02-14T06:08:22;5.68;;;5.18;;
9934;SDS011;5006;41.828;23.478;2024-02-14T06:09:28;5.45;;;4.88;;
9934;SDS011;5006;41.828;23.478;2024-02-14T06:10:34;6.32;;;5.20;;
9934;SDS011;5006;41.828;23.478;2024-02-14T06:11:40;6.60;;;5.50;;
9934;SDS011;5006;41.828;23.478;2024-02-14T06:12:48;6.78;;;6.15;;
9934;SDS011;5006;41.828;23.478;2024-02-14T06:13:55;6.13;;;5.45;;
9934;SDS011;5006;41.828;23.478;2024-02-14T06:15:01;6.28;;;5.18;;
9934;SDS011;5006;41.828;23.478;2024-02-14T06:16:11;5.38;;;4.93;;
9934;SDS011;5006;41.828;23.478;2024-02-14T06:17:19;5.53;;;5.03;;
9934;SDS011;5006;41.828;23.478;2024-02-14T06:18:24;5.88;;;5.38;;
9934;SDS011;5006;41.828;23.478;2024-02-14T06:19:33;5.47;;;4.97;;
9934;SDS011;5006;41.828;23.478;2024-02-14T06:20:39;5.68;;;5.00;;
9934;SDS011;5006;41.828;23.478;2024-02-14T06:21:46;5.07;;;4.57;;
9934;SDS011;5006;41.828;23.478;2024-02-14T06:22:53;5.18;;;4.68;;
9934;SDS011;5006;41.828;23.478;2024-02-14T06:24:04;5.43;;;4.93;;
9934;SDS011;5006;41.828;23.478;2024-02-14T06:25:10;5.68;;;5.18;;
9934;SDS011;5006;41.828;23.478;2024-02-14T06:26:29;5.53;;;5.07;;
9934;SDS011;5006;41.828;23.478;2024-02-14T06:27:35;5.30;;;4.80;;
9934;SDS011;5006;41.828;23.478;2024-02-14T06:28:41;5.47;;;4.90;;
9934;SDS011;5006;41.828;23.478;2024-02-14T06:29:47;5.28;;;4.53;;
9934;SDS011;5006;41.828;23.478;2024-02-14T06:30:53;5.50;;;4.47;;
9934;SDS011;5006;41.828;23.478;2024-02-14T06:32:00;5.32;;;4.82;;
9934;SDS011;5006;41.828;23.478;2024-02-14T06:33:06;5.68;;;5.18;;
9934;SDS011;5006;41.828;23.478;2024-02-14T06:34:13;4.88;;;4.47;;
9934;SDS011;5006;41.828;23.478;2024-02-14T06:35:21;5.78;;;4.90;;
9934;SDS011;5006;41.828;23.478;2024-02-14T06:36:27;5.40;;;4.90;;
9934;SDS011;5006;41.828;23.478;2024-02-14T06:37:32;5.38;;;4.88;;
9934;SDS011;5006;41.828;23.478;2024-02-14T06:38:39;6.55;;;4.97;;
9934;SDS011;5006;41.828;23.478;2024-02-14T06:39:44;5.40;;;4.90;;
9934;SDS011;5006;41.828;23.478;2024-02-14T06:40:53;5.10;;;4.70;;
9934;SDS011;5006;41.828;23.478;2024-02-14T06:41:58;8.32;;;5.38;;
9934;SDS011;5006;41.828;23.478;2024-02-14T06:43:05;6.07;;;5.47;;
9934;SDS011;5006;41.828;23.478;2024-02-14T06:44:12;5.15;;;4.65;;
9934;SDS011;5006;41.828;23.478;2024-02-14T06:45:18;6.13;;;5.25;;
9934;SDS011;5006;41.828;23.478;2024-02-14T06:46:33;5.30;;;4.80;;
9934;SDS011;5006;41.828;23.478;2024-02-14T06:47:43;6.05;;;4.90;;
9934;SDS011;5006;41.828;23.478;2024-02-14T06:48:48;5.28;;;4.88;;
9934;SDS011;5006;41.828;23.478;2024-02-14T06:49:56;6.35;;;5.50;;
9934;SDS011;5006;41.828;23.478;2024-02-14T06:51:05;6.13;;;5.63;;
9934;SDS011;5006;41.828;23.478;2024-02-14T06:52:12;6.07;;;5.55;;
9934;SDS011;5006;41.828;23.478;2024-02-14T06:53:19;5.63;;;5.13;;
9934;SDS011;5006;41.828;23.478;2024-02-14T06:54:26;6.53;;;5.85;;
9934;SDS011;5006;41.828;23.478;2024-02-14T06:55:31;7.28;;;5.82;;
9934;SDS011;5006;41.828;23.478;2024-02-14T06:56:39;6.85;;;6.25;;
9934;SDS011;5006;41.828;23.478;2024-02-14T06:57:46;6.97;;;6.32;;
9934;SDS011;5006;41.828;23.478;2024-02-14T06:58:52;6.43;;;5.80;;
9934;SDS011;5006;41.828;23.478;2024-02-14T07:00:05;5.45;;;4.95;;
9934;SDS011;5006;41.828;23.478;2024-02-14T07:01:14;6.20;;;5.60;;
9934;SDS011;5006;41.828;23.478;2024-02-14T07:02:23;6.57;;;5.78;;